sensor_id;sensor_type;location;lat;lon;timestamp;pressure;altitude;pressure_sealevel;temperature;humidity
73821;BME280;62150;43.582;1.456;2023-09-19T05:07:02;100334.28;;;23.19;100.00
73821;BME280;62150;43.582;1.456;2023-09-19T05:09:30;100333.59;;;23.46;100.00
73821;BME280;62150;43.582;1.456;2023-09-19T05:12:00;100334.84;;;23.32;100.00
73821;BME280;62150;43.582;1.456;2023-09-19T05:14:27;100330.53;;;23.02;100.00
73821;BME280;62150;43.582;1.456;2023-09-19T05:16:55;100340.22;;;23.21;100.00
73821;BME280;62150;43.582;1.456;2023-09-19T05:19:22;100355.91;;;23.02;100.00
73821;BME280;62150;43.582;1.456;2023-09-19T05:21:50;100355.63;;;23.05;100.00
73821;BME280;62150;43.582;1.456;2023-09-19T05:24:19;100345.84;;;23.07;100.00
73821;BME280;62150;43.582;1.456;2023-09-19T05:26:48;100349.94;;;22.60;100.00
73821;BME280;62150;43.582;1.456;2023-09-19T05:29:16;100357.69;;;22.71;100.00
73821;BME280;62150;43.582;1.456;2023-09-19T05:31:43;100362.69;;;22.23;100.00
73821;BME280;62150;43.582;1.456;2023-09-19T05:34:11;100359.38;;;21.79;100.00
73821;BME280;62150;43.582;1.456;2023-09-19T05:36:38;100372.16;;;22.35;100.00
73821;BME280;62150;43.582;1.456;2023-09-19T05:39:06;100361.66;;;22.86;100.00
73821;BME280;62150;43.582;1.456;2023-09-19T05:41:37;100367.88;;;22.85;100.00
73821;BME280;62150;43.582;1.456;2023-09-19T05:44:06;100362.75;;;22.93;100.00
73821;BME280;62150;43.582;1.456;2023-09-19T05:46:34;100365.44;;;22.72;100.00
73821;BME280;62150;43.582;1.456;2023-09-19T05:49:01;100372.78;;;22.79;100.00
73821;BME280;62150;43.582;1.456;2023-09-19T05:51:30;100387.88;;;22.14;100.00
73821;BME280;62150;43.582;1.456;2023-09-19T05:53:57;100381.03;;;22.53;100.00
73821;BME280;62150;43.582;1.456;2023-09-19T05:56:25;100378.91;;;22.68;100.00
73821;BME280;62150;43.582;1.456;2023-09-19T05:58:54;100390.75;;;22.93;100.00
73821;BME280;62150;43.582;1.456;2023-09-19T06:01:22;100400.25;;;22.63;100.00
73821;BME280;62150;43.582;1.456;2023-09-19T06:03:49;100397.31;;;22.57;100.00
73821;BME280;62150;43.582;1.456;2023-09-19T06:06:19;100389.66;;;22.86;100.00
73821;BME280;62150;43.582;1.456;2023-09-19T06:08:46;100411.63;;;22.73;100.00
73821;BME280;62150;43.582;1.456;2023-09-19T06:11:16;100402.38;;;23.00;100.00
73821;BME280;62150;43.582;1.456;2023-09-19T06:13:46;100406.44;;;22.62;100.00
73821;BME280;62150;43.582;1.456;2023-09-19T06:16:15;100410.66;;;22.44;100.00
73821;BME280;62150;43.582;1.456;2023-09-19T06:18:45;100406.88;;;22.37;100.00
73821;BME280;62150;43.582;1.456;2023-09-19T06:21:13;100410.84;;;22.31;100.00
73821;BME280;62150;43.582;1.456;2023-09-19T06:23:41;100405.38;;;22.14;100.00
73821;BME280;62150;43.582;1.456;2023-09-19T06:26:08;100411.22;;;22.27;100.00
73821;BME280;62150;43.582;1.456;2023-09-19T06:28:35;100406.06;;;22.16;100.00
73821;BME280;62150;43.582;1.456;2023-09-19T06:31:03;100408.75;;;22.77;100.00
73821;BME280;62150;43.582;1.456;2023-09-19T06:33:37;100406.69;;;22.50;100.00
73821;BME280;62150;43.582;1.456;2023-09-19T06:36:05;100412.22;;;22.56;100.00
73821;BME280;62150;43.582;1.456;2023-09-19T06:38:33;100407.50;;;22.50;100.00
73821;BME280;62150;43.582;1.456;2023-09-19T06:41:02;100402.66;;;22.25;100.00
73821;BME280;62150;43.582;1.456;2023-09-19T06:43:31;100399.03;;;22.16;100.00
73821;BME280;62150;43.582;1.456;2023-09-19T06:46:00;100409.81;;;22.02;100.00
73821;BME280;62150;43.582;1.456;2023-09-19T06:48:28;100409.75;;;22.34;100.00
73821;BME280;62150;43.582;1.456;2023-09-19T06:50:57;100407.03;;;22.15;100.00
73821;BME280;62150;43.582;1.456;2023-09-19T06:53:28;100398.28;;;21.93;100.00
73821;BME280;62150;43.582;1.456;2023-09-19T06:55:58;100403.00;;;22.11;100.00
73821;BME280;62150;43.582;1.456;2023-09-19T06:58:25;100400.66;;;22.59;100.00
73821;BME280;62150;43.582;1.456;2023-09-19T07:00:52;100403.97;;;22.61;100.00
73821;BME280;62150;43.582;1.456;2023-09-19T07:03:20;100406.97;;;22.56;100.00
73821;BME280;62150;43.582;1.456;2023-09-19T07:05:52;100402.75;;;22.86;100.00
73821;BME280;62150;43.582;1.456;2023-09-19T07:08:23;100400.13;;;22.95;100.00
73821;BME280;62150;43.582;1.456;2023-09-19T07:10:51;100396.72;;;23.04;100.00
73821;BME280;62150;43.582;1.456;2023-09-19T07:13:18;100406.00;;;22.57;100.00
73821;BME280;62150;43.582;1.456;2023-09-19T07:15:46;100407.50;;;22.50;100.00
73821;BME280;62150;43.582;1.456;2023-09-19T07:18:14;100394.91;;;22.14;100.00
73821;BME280;62150;43.582;1.456;2023-09-19T07:20:44;100391.25;;;21.73;100.00
73821;BME280;62150;43.582;1.456;2023-09-19T07:23:15;100390.56;;;23.25;100.00
73821;BME280;62150;43.582;1.456;2023-09-19T07:25:46;100389.91;;;23.42;100.00
73821;BME280;62150;43.582;1.456;2023-09-19T07:28:14;100393.22;;;23.34;100.00
73821;BME280;62150;43.582;1.456;2023-09-19T07:30:42;100391.56;;;23.43;100.00
73821;BME280;62150;43.582;1.456;2023-09-19T07:33:10;100400.72;;;23.58;100.00
73821;BME280;62150;43.582;1.456;2023-09-19T07:35:38;100392.19;;;23.85;100.00
73821;BME280;62150;43.582;1.456;2023-09-19T07:38:07;100392.09;;;23.27;100.00
73821;BME280;62150;43.582;1.456;2023-09-19T07:40:35;100395.72;;;23.46;100.00
73821;BME280;62150;43.582;1.456;2023-09-19T07:43:04;100395.84;;;23.44;100.00
73821;BME280;62150;43.582;1.456;2023-09-19T07:45:33;100397.50;;;23.35;100.00
73821;BME280;62150;43.582;1.456;2023-09-19T07:48:02;100397.84;;;23.12;100.00
73821;BME280;62150;43.582;1.456;2023-09-19T07:50:34;100386.56;;;23.30;100.00
73821;BME280;62150;43.582;1.456;2023-09-19T07:53:03;100394.72;;;23.18;100.00
73821;BME280;62150;43.582;1.456;2023-09-19T07:55:31;100392.59;;;23.71;100.00
73821;BME280;62150;43.582;1.456;2023-09-19T07:58:00;100393.00;;;23.66;100.00
73821;BME280;62150;43.582;1.456;2023-09-19T08:00:31;100394.38;;;23.61;100.00
73821;BME280;62150;43.582;1.456;2023-09-19T08:03:01;100407.25;;;23.14;100.00
73821;BME280;62150;43.582;1.456;2023-09-19T08:05:29;100400.44;;;23.61;100.00
73821;BME280;62150;43.582;1.456;2023-09-19T08:07:59;100402.53;;;23.87;100.00
73821;BME280;62150;43.582;1.456;2023-09-19T08:10:27;100408.47;;;23.79;100.00
73821;BME280;62150;43.582;1.456;2023-09-19T08:13:01;100412.44;;;24.22;100.00
73821;BME280;62150;43.582;1.456;2023-09-19T08:15:30;100414.53;;;23.11;100.00
73821;BME280;62150;43.582;1.456;2023-09-19T08:17:58;100413.00;;;23.58;100.00
73821;BME280;62150;43.582;1.456;2023-09-19T08:20:25;100417.88;;;23.82;100.00
73821;BME280;62150;43.582;1.456;2023-09-19T08:22:54;100419.78;;;23.99;100.00
73821;BME280;62150;43.582;1.456;2023-09-19T08:25:23;100423.06;;;24.49;100.00
73821;BME280;62150;43.582;1.456;2023-09-19T08:27:55;100422.81;;;24.14;100.00
73821;BME280;62150;43.582;1.456;2023-09-19T08:30:26;100423.78;;;24.22;100.00
73821;BME280;62150;43.582;1.456;2023-09-19T08:32:59;100423.53;;;24.72;100.00
73821;BME280;62150;43.582;1.456;2023-09-19T08:35:27;100427.19;;;24.52;100.00
73821;BME280;62150;43.582;1.456;2023-09-19T08:37:57;100427.00;;;24.63;100.00
73821;BME280;62150;43.582;1.456;2023-09-19T08:40:26;100431.09;;;24.28;100.00
73821;BME280;62150;43.582;1.456;2023-09-19T08:42:56;100428.25;;;24.68;100.00
73821;BME280;62150;43.582;1.456;2023-09-19T08:45:24;100423.63;;;24.43;100.00
73821;BME280;62150;43.582;1.456;2023-09-19T08:48:04;100414.94;;;24.80;100.00
73821;BME280;62150;43.582;1.456;2023-09-19T08:50:42;100413.63;;;24.93;100.00
73821;BME280;62150;43.582;1.456;2023-09-19T08:53:11;100418.56;;;25.06;100.00
73821;BME280;62150;43.582;1.456;2023-09-19T08:55:42;100418.09;;;24.36;100.00
73821;BME280;62150;43.582;1.456;2023-09-19T08:58:15;100410.00;;;25.49;100.00
73821;BME280;62150;43.582;1.456;2023-09-19T09:00:49;100416.63;;;26.07;100.00
73821;BME280;62150;43.582;1.456;2023-09-19T09:03:19;100415.41;;;26.19;100.00
73821;BME280;62150;43.582;1.456;2023-09-19T09:05:48;100416.31;;;26.27;100.00
73821;BME280;62150;43.582;1.456;2023-09-19T09:08:18;100415.59;;;26.43;100.00
73821;BME280;62150;43.582;1.456;2023-09-19T09:10:48;100417.34;;;25.28;100.00
73821;BME280;62150;43.582;1.456;2023-09-19T09:13:17;100421.19;;;26.40;100.00
73821;BME280;62150;43.582;1.456;2023-09-19T09:15:45;100417.66;;;26.57;100.00
73821;BME280;62150;43.582;1.456;2023-09-19T09:18:13;100415.06;;;26.31;100.00
73821;BME280;62150;43.582;1.456;2023-09-19T09:20:42;100419.53;;;26.65;100.00
73821;BME280;62150;43.582;1.456;2023-09-19T09:23:11;100415.75;;;26.67;100.00
73821;BME280;62150;43.582;1.456;2023-09-19T09:25:50;100422.94;;;26.57;100.00
73821;BME280;62150;43.582;1.456;2023-09-19T09:28:22;100409.53;;;27.11;100.00
73821;BME280;62150;43.582;1.456;2023-09-19T09:30:50;100412.66;;;27.14;100.00
73821;BME280;62150;43.582;1.456;2023-09-19T09:33:18;100406.06;;;27.10;100.00
73821;BME280;62150;43.582;1.456;2023-09-19T09:35:55;100406.34;;;26.39;100.00
73821;BME280;62150;43.582;1.456;2023-09-19T09:38:27;100405.09;;;25.64;100.00
73821;BME280;62150;43.582;1.456;2023-09-19T09:40:58;100399.53;;;26.11;100.00
73821;BME280;62150;43.582;1.456;2023-09-19T09:43:38;100398.34;;;26.05;100.00
73821;BME280;62150;43.582;1.456;2023-09-19T09:46:08;100400.25;;;25.77;100.00
73821;BME280;62150;43.582;1.456;2023-09-19T09:49:00;100393.09;;;25.52;100.00
73821;BME280;62150;43.582;1.456;2023-09-19T09:52:01;100395.38;;;25.64;100.00
73821;BME280;62150;43.582;1.456;2023-09-19T09:54:33;100395.59;;;26.92;100.00
73821;BME280;62150;43.582;1.456;2023-09-19T09:57:04;100399.91;;;26.59;100.00
73821;BME280;62150;43.582;1.456;2023-09-19T09:59:51;100394.34;;;27.04;100.00
73821;BME280;62150;43.582;1.456;2023-09-19T10:02:20;100398.16;;;26.76;100.00
73821;BME280;62150;43.582;1.456;2023-09-19T10:04:52;100394.38;;;27.13;100.00
73821;BME280;62150;43.582;1.456;2023-09-19T10:07:28;100392.63;;;26.10;100.00
73821;BME280;62150;43.582;1.456;2023-09-19T10:09:59;100396.19;;;26.44;100.00
73821;BME280;62150;43.582;1.456;2023-09-19T10:12:38;100393.84;;;26.67;100.00
73821;BME280;62150;43.582;1.456;2023-09-19T10:15:10;100399.22;;;26.57;100.00
73821;BME280;62150;43.582;1.456;2023-09-19T10:17:43;100389.56;;;27.08;98.80
73821;BME280;62150;43.582;1.456;2023-09-19T10:20:16;100385.44;;;28.21;94.51
73821;BME280;62150;43.582;1.456;2023-09-19T10:23:08;100391.84;;;28.90;90.48
73821;BME280;62150;43.582;1.456;2023-09-19T10:25:38;100391.09;;;27.19;96.48
73821;BME280;62150;43.582;1.456;2023-09-19T10:28:07;100391.06;;;26.77;99.64
73821;BME280;62150;43.582;1.456;2023-09-19T10:30:38;100386.91;;;27.83;93.92
73821;BME280;62150;43.582;1.456;2023-09-19T10:33:11;100382.06;;;28.43;91.37
73821;BME280;62150;43.582;1.456;2023-09-19T10:35:41;100373.19;;;28.20;92.61
73821;BME280;62150;43.582;1.456;2023-09-19T10:38:12;100374.88;;;27.96;92.90
73821;BME280;62150;43.582;1.456;2023-09-19T10:40:40;100371.94;;;26.75;96.23
73821;BME280;62150;43.582;1.456;2023-09-19T10:43:15;100368.22;;;27.44;94.24
73821;BME280;62150;43.582;1.456;2023-09-19T10:45:45;100367.41;;;27.51;92.22
73821;BME280;62150;43.582;1.456;2023-09-19T10:48:16;100362.69;;;26.96;92.38
73821;BME280;62150;43.582;1.456;2023-09-19T10:50:48;100351.91;;;27.48;93.31
73821;BME280;62150;43.582;1.456;2023-09-19T10:53:19;100353.34;;;27.18;92.95
73821;BME280;62150;43.582;1.456;2023-09-19T10:55:51;100349.75;;;27.52;91.62
73821;BME280;62150;43.582;1.456;2023-09-19T10:58:31;100341.34;;;27.32;92.50
73821;BME280;62150;43.582;1.456;2023-09-19T11:01:01;100339.09;;;27.69;91.19
73821;BME280;62150;43.582;1.456;2023-09-19T11:03:35;100340.22;;;27.59;90.64
73821;BME280;62150;43.582;1.456;2023-09-19T11:06:11;100338.75;;;28.52;87.12
73821;BME280;62150;43.582;1.456;2023-09-19T11:09:00;100337.09;;;28.98;87.52
73821;BME280;62150;43.582;1.456;2023-09-19T11:11:49;100321.00;;;29.54;80.21
73821;BME280;62150;43.582;1.456;2023-09-19T11:14:42;100320.00;;;28.39;83.75
73821;BME280;62150;43.582;1.456;2023-09-19T11:17:32;100318.38;;;28.69;78.11
73821;BME280;62150;43.582;1.456;2023-09-19T11:20:22;100312.84;;;28.87;80.34
73821;BME280;62150;43.582;1.456;2023-09-19T11:23:22;100310.47;;;29.68;75.71
73821;BME280;62150;43.582;1.456;2023-09-19T11:25:54;100309.75;;;28.75;72.76
73821;BME280;62150;43.582;1.456;2023-09-19T11:28:32;100302.84;;;29.28;64.27
73821;BME280;62150;43.582;1.456;2023-09-19T11:30:59;100295.25;;;28.32;72.42
73821;BME280;62150;43.582;1.456;2023-09-19T11:33:46;100303.56;;;27.48;79.57
73821;BME280;62150;43.582;1.456;2023-09-19T11:36:16;100303.88;;;27.45;80.68
73821;BME280;62150;43.582;1.456;2023-09-19T11:38:58;100293.44;;;28.24;79.64
73821;BME280;62150;43.582;1.456;2023-09-19T11:41:39;100294.25;;;28.33;80.80
73821;BME280;62150;43.582;1.456;2023-09-19T11:44:31;100289.22;;;28.46;80.96
73821;BME280;62150;43.582;1.456;2023-09-19T11:47:01;100288.56;;;28.83;82.05
73821;BME280;62150;43.582;1.456;2023-09-19T11:49:31;100296.13;;;27.92;85.51
73821;BME280;62150;43.582;1.456;2023-09-19T11:52:01;100286.66;;;29.23;79.08
73821;BME280;62150;43.582;1.456;2023-09-19T11:54:31;100274.44;;;28.99;75.97
73821;BME280;62150;43.582;1.456;2023-09-19T11:57:01;100283.28;;;28.44;65.32
73821;BME280;62150;43.582;1.456;2023-09-19T11:59:29;100283.53;;;29.19;67.43
73821;BME280;62150;43.582;1.456;2023-09-19T12:02:01;100275.97;;;29.91;61.10
73821;BME280;62150;43.582;1.456;2023-09-19T12:04:36;100271.19;;;28.89;66.49
73821;BME280;62150;43.582;1.456;2023-09-19T12:07:05;100282.50;;;28.75;67.00
73821;BME280;62150;43.582;1.456;2023-09-19T12:09:39;100266.97;;;30.30;54.65
73821;BME280;62150;43.582;1.456;2023-09-19T12:12:12;100263.16;;;29.80;58.62
73821;BME280;62150;43.582;1.456;2023-09-19T12:14:48;100255.44;;;31.10;55.34
73821;BME280;62150;43.582;1.456;2023-09-19T12:17:16;100254.31;;;30.47;55.03
73821;BME280;62150;43.582;1.456;2023-09-19T12:19:50;100254.69;;;29.70;58.36
73821;BME280;62150;43.582;1.456;2023-09-19T12:22:18;100261.44;;;29.87;52.53
73821;BME280;62150;43.582;1.456;2023-09-19T12:24:47;100249.31;;;29.78;53.01
73821;BME280;62150;43.582;1.456;2023-09-19T12:27:18;100249.00;;;29.58;55.24
73821;BME280;62150;43.582;1.456;2023-09-19T12:29:46;100243.31;;;30.50;54.54
73821;BME280;62150;43.582;1.456;2023-09-19T12:32:15;100235.72;;;30.76;50.40
73821;BME280;62150;43.582;1.456;2023-09-19T12:34:51;100243.47;;;30.27;50.19
73821;BME280;62150;43.582;1.456;2023-09-19T12:37:20;100240.59;;;30.58;47.39
73821;BME280;62150;43.582;1.456;2023-09-19T12:39:50;100243.00;;;29.79;56.97
73821;BME280;62150;43.582;1.456;2023-09-19T12:42:22;100231.03;;;30.42;56.00
73821;BME280;62150;43.582;1.456;2023-09-19T12:44:51;100229.41;;;31.69;49.83
73821;BME280;62150;43.582;1.456;2023-09-19T12:47:21;100214.84;;;30.94;50.83
73821;BME280;62150;43.582;1.456;2023-09-19T12:50:06;100222.97;;;29.62;65.31
73821;BME280;62150;43.582;1.456;2023-09-19T12:52:40;100222.94;;;28.79;63.03
73821;BME280;62150;43.582;1.456;2023-09-19T12:55:08;100214.84;;;29.26;60.49
73821;BME280;62150;43.582;1.456;2023-09-19T12:57:38;100209.94;;;29.75;58.42
73821;BME280;62150;43.582;1.456;2023-09-19T13:00:10;100204.00;;;30.89;50.83
73821;BME280;62150;43.582;1.456;2023-09-19T13:02:37;100182.66;;;30.76;47.33
73821;BME280;62150;43.582;1.456;2023-09-19T13:05:49;100199.94;;;29.48;51.48
73821;BME280;62150;43.582;1.456;2023-09-19T13:08:19;100193.31;;;29.81;52.20
73821;BME280;62150;43.582;1.456;2023-09-19T13:11:08;100192.28;;;29.53;50.46
73821;BME280;62150;43.582;1.456;2023-09-19T13:13:42;100186.50;;;29.34;52.03
73821;BME280;62150;43.582;1.456;2023-09-19T13:16:14;100175.06;;;30.01;48.59
73821;BME280;62150;43.582;1.456;2023-09-19T13:18:47;100176.34;;;29.23;52.10
73821;BME280;62150;43.582;1.456;2023-09-19T13:21:26;100171.59;;;30.00;49.12
73821;BME280;62150;43.582;1.456;2023-09-19T13:23:55;100170.06;;;30.27;45.92
73821;BME280;62150;43.582;1.456;2023-09-19T13:26:25;100161.34;;;30.91;44.05
73821;BME280;62150;43.582;1.456;2023-09-19T13:28:56;100159.81;;;31.59;40.95
73821;BME280;62150;43.582;1.456;2023-09-19T13:31:26;100153.03;;;29.86;46.25
73821;BME280;62150;43.582;1.456;2023-09-19T13:33:53;100148.75;;;31.49;41.88
73821;BME280;62150;43.582;1.456;2023-09-19T13:36:21;100145.09;;;31.91;43.27
73821;BME280;62150;43.582;1.456;2023-09-19T13:38:48;100136.72;;;31.87;40.78
73821;BME280;62150;43.582;1.456;2023-09-19T13:41:16;100144.13;;;31.29;43.18
73821;BME280;62150;43.582;1.456;2023-09-19T13:43:43;100152.97;;;29.79;47.06
73821;BME280;62150;43.582;1.456;2023-09-19T13:46:15;100130.78;;;31.51;42.66
73821;BME280;62150;43.582;1.456;2023-09-19T13:48:51;100126.91;;;31.94;41.16
73821;BME280;62150;43.582;1.456;2023-09-19T13:51:20;100128.19;;;32.79;41.54
73821;BME280;62150;43.582;1.456;2023-09-19T13:53:49;100125.69;;;31.21;40.44
73821;BME280;62150;43.582;1.456;2023-09-19T13:56:16;100120.84;;;31.04;41.59
73821;BME280;62150;43.582;1.456;2023-09-19T13:58:44;100111.75;;;31.13;42.24
73821;BME280;62150;43.582;1.456;2023-09-19T14:01:12;100108.78;;;31.29;42.64
73821;BME280;62150;43.582;1.456;2023-09-19T14:03:41;100103.78;;;30.42;41.99
73821;BME280;62150;43.582;1.456;2023-09-19T14:06:12;100100.81;;;31.01;41.71
73821;BME280;62150;43.582;1.456;2023-09-19T14:08:40;100105.63;;;31.81;39.18
73821;BME280;62150;43.582;1.456;2023-09-19T14:11:08;100092.38;;;31.94;38.76
73821;BME280;62150;43.582;1.456;2023-09-19T14:13:35;100098.50;;;31.13;38.73
73821;BME280;62150;43.582;1.456;2023-09-19T14:16:04;100095.13;;;31.04;39.70
73821;BME280;62150;43.582;1.456;2023-09-19T14:18:32;100087.94;;;30.98;38.77
73821;BME280;62150;43.582;1.456;2023-09-19T14:21:04;100097.78;;;30.76;40.33
73821;BME280;62150;43.582;1.456;2023-09-19T14:23:35;100087.75;;;31.27;39.55
73821;BME280;62150;43.582;1.456;2023-09-19T14:26:03;100092.50;;;32.34;37.60
73821;BME280;62150;43.582;1.456;2023-09-19T14:28:31;100092.63;;;32.06;37.64
73821;BME280;62150;43.582;1.456;2023-09-19T14:31:04;100086.81;;;32.57;37.04
73821;BME280;62150;43.582;1.456;2023-09-19T14:33:33;100087.63;;;32.51;37.92
73821;BME280;62150;43.582;1.456;2023-09-19T14:36:04;100087.94;;;31.26;38.80
73821;BME280;62150;43.582;1.456;2023-09-19T14:38:33;100088.75;;;30.71;41.52
73821;BME280;62150;43.582;1.456;2023-09-19T14:41:01;100078.84;;;31.42;38.59
73821;BME280;62150;43.582;1.456;2023-09-19T14:43:29;100075.72;;;32.34;38.78
73821;BME280;62150;43.582;1.456;2023-09-19T14:46:02;100075.38;;;32.89;35.79
73821;BME280;62150;43.582;1.456;2023-09-19T14:48:29;100075.56;;;31.40;37.82
73821;BME280;62150;43.582;1.456;2023-09-19T14:51:04;100080.00;;;32.28;36.93
73821;BME280;62150;43.582;1.456;2023-09-19T14:53:33;100073.13;;;32.80;36.75
73821;BME280;62150;43.582;1.456;2023-09-19T14:56:01;100066.84;;;33.52;35.24
73821;BME280;62150;43.582;1.456;2023-09-19T14:58:29;100062.91;;;34.06;35.67
73821;BME280;62150;43.582;1.456;2023-09-19T15:01:03;100059.97;;;32.65;35.60
73821;BME280;62150;43.582;1.456;2023-09-19T15:03:32;100054.59;;;33.38;33.56
73821;BME280;62150;43.582;1.456;2023-09-19T15:06:02;100055.50;;;32.85;35.84
73821;BME280;62150;43.582;1.456;2023-09-19T15:08:31;100059.72;;;31.53;36.93
73821;BME280;62150;43.582;1.456;2023-09-19T15:11:01;100051.38;;;32.30;36.53
73821;BME280;62150;43.582;1.456;2023-09-19T15:13:31;100052.66;;;32.80;35.29
73821;BME280;62150;43.582;1.456;2023-09-19T15:16:00;100043.78;;;33.06;35.74
73821;BME280;62150;43.582;1.456;2023-09-19T15:18:28;100041.66;;;33.48;35.34
73821;BME280;62150;43.582;1.456;2023-09-19T15:20:56;100036.53;;;33.46;35.16
73821;BME280;62150;43.582;1.456;2023-09-19T15:23:28;100036.03;;;32.65;36.14
73821;BME280;62150;43.582;1.456;2023-09-19T15:25:55;100030.84;;;33.23;34.41
73821;BME280;62150;43.582;1.456;2023-09-19T15:28:23;100022.09;;;32.96;34.85
73821;BME280;62150;43.582;1.456;2023-09-19T15:30:56;100011.97;;;34.45;33.34
73821;BME280;62150;43.582;1.456;2023-09-19T15:33:26;100019.88;;;32.86;34.90
73821;BME280;62150;43.582;1.456;2023-09-19T15:36:01;100010.00;;;33.07;35.30
73821;BME280;62150;43.582;1.456;2023-09-19T15:38:31;100006.97;;;33.61;35.25
73821;BME280;62150;43.582;1.456;2023-09-19T15:40:59;100006.34;;;33.59;35.87
73821;BME280;62150;43.582;1.456;2023-09-19T15:43:27;100006.72;;;33.05;36.56
73821;BME280;62150;43.582;1.456;2023-09-19T15:45:54;100009.44;;;32.72;36.08
73821;BME280;62150;43.582;1.456;2023-09-19T15:48:22;100000.00;;;33.60;35.18
73821;BME280;62150;43.582;1.456;2023-09-19T15:50:49;100002.25;;;34.26;33.82
73821;BME280;62150;43.582;1.456;2023-09-19T15:53:17;100001.28;;;33.89;34.80
73821;BME280;62150;43.582;1.456;2023-09-19T15:55:46;100004.78;;;33.89;35.27
73821;BME280;62150;43.582;1.456;2023-09-19T15:58:13;100005.31;;;33.98;34.62
73821;BME280;62150;43.582;1.456;2023-09-19T16:00:41;99997.22;;;33.86;33.85
73821;BME280;62150;43.582;1.456;2023-09-19T16:03:08;99997.97;;;33.55;34.69
73821;BME280;62150;43.582;1.456;2023-09-19T16:05:38;99989.78;;;34.20;34.16
73821;BME280;62150;43.582;1.456;2023-09-19T16:08:06;100004.88;;;34.33;34.27
73821;BME280;62150;43.582;1.456;2023-09-19T16:10:37;99998.63;;;33.44;33.79
73821;BME280;62150;43.582;1.456;2023-09-19T16:13:07;100011.28;;;32.58;34.96
73821;BME280;62150;43.582;1.456;2023-09-19T16:15:41;100003.19;;;33.82;34.31
73821;BME280;62150;43.582;1.456;2023-09-19T16:18:08;100004.38;;;33.86;33.53
73821;BME280;62150;43.582;1.456;2023-09-19T16:20:36;100001.97;;;33.71;33.94
73821;BME280;62150;43.582;1.456;2023-09-19T16:23:05;100005.69;;;33.63;33.49
73821;BME280;62150;43.582;1.456;2023-09-19T16:25:33;100004.56;;;33.46;34.43
73821;BME280;62150;43.582;1.456;2023-09-19T16:28:00;100007.81;;;32.90;33.22
73821;BME280;62150;43.582;1.456;2023-09-19T16:30:32;100000.16;;;33.14;34.41
73821;BME280;62150;43.582;1.456;2023-09-19T16:33:00;100000.25;;;32.87;33.44
73821;BME280;62150;43.582;1.456;2023-09-19T16:35:28;100002.84;;;33.07;33.75
73821;BME280;62150;43.582;1.456;2023-09-19T16:37:55;100006.44;;;33.77;34.43
73821;BME280;62150;43.582;1.456;2023-09-19T16:40:23;100014.31;;;32.94;33.27
73821;BME280;62150;43.582;1.456;2023-09-19T16:42:55;100011.81;;;33.19;33.96
73821;BME280;62150;43.582;1.456;2023-09-19T16:45:23;100012.63;;;31.75;34.28
73821;BME280;62150;43.582;1.456;2023-09-19T16:47:52;100005.31;;;31.42;35.17
73821;BME280;62150;43.582;1.456;2023-09-19T16:50:21;100011.06;;;32.20;34.07
73821;BME280;62150;43.582;1.456;2023-09-19T16:52:48;100004.56;;;32.55;34.22
73821;BME280;62150;43.582;1.456;2023-09-19T16:55:16;100006.56;;;32.67;34.13
73821;BME280;62150;43.582;1.456;2023-09-19T16:57:46;100005.72;;;32.99;34.02
73821;BME280;62150;43.582;1.456;2023-09-19T17:00:15;99999.38;;;33.00;34.49
73821;BME280;62150;43.582;1.456;2023-09-19T17:02:46;99999.72;;;33.23;34.45
73821;BME280;62150;43.582;1.456;2023-09-19T17:05:16;99999.66;;;33.43;35.35
73821;BME280;62150;43.582;1.456;2023-09-19T17:07:44;100009.94;;;33.33;35.21
73821;BME280;62150;43.582;1.456;2023-09-19T17:10:12;99999.31;;;33.20;35.96
73821;BME280;62150;43.582;1.456;2023-09-19T17:12:39;100000.59;;;33.04;34.43
73821;BME280;62150;43.582;1.456;2023-09-19T17:15:08;99997.31;;;32.95;35.15
73821;BME280;62150;43.582;1.456;2023-09-19T17:17:36;99990.59;;;32.73;36.46
73821;BME280;62150;43.582;1.456;2023-09-19T17:20:06;99992.66;;;32.58;37.62
73821;BME280;62150;43.582;1.456;2023-09-19T17:22:35;99989.63;;;32.21;37.82
73821;BME280;62150;43.582;1.456;2023-09-19T17:25:03;99991.22;;;32.16;37.49
73821;BME280;62150;43.582;1.456;2023-09-19T17:27:30;99990.75;;;31.79;39.02
73821;BME280;62150;43.582;1.456;2023-09-19T17:29:59;99992.16;;;31.69;38.69
73821;BME280;62150;43.582;1.456;2023-09-19T17:32:27;99986.97;;;31.47;40.21
73821;BME280;62150;43.582;1.456;2023-09-19T17:34:54;99983.88;;;31.44;40.64
73821;BME280;62150;43.582;1.456;2023-09-19T17:37:22;99984.69;;;31.38;41.67
73821;BME280;62150;43.582;1.456;2023-09-19T17:39:51;99983.72;;;31.11;41.70
73821;BME280;62150;43.582;1.456;2023-09-19T17:42:19;99979.16;;;30.98;43.67
73821;BME280;62150;43.582;1.456;2023-09-19T17:44:47;99985.44;;;30.90;44.26
73821;BME280;62150;43.582;1.456;2023-09-19T17:47:15;99984.69;;;31.03;43.99
73821;BME280;62150;43.582;1.456;2023-09-19T17:49:44;99984.59;;;30.90;45.03
73821;BME280;62150;43.582;1.456;2023-09-19T17:52:15;99987.16;;;30.70;43.48
73821;BME280;62150;43.582;1.456;2023-09-19T17:54:44;99986.91;;;30.65;46.85
73821;BME280;62150;43.582;1.456;2023-09-19T17:57:13;99978.94;;;30.65;46.44
73821;BME280;62150;43.582;1.456;2023-09-19T17:59:41;99982.53;;;30.79;49.04
73821;BME280;62150;43.582;1.456;2023-09-19T18:02:10;99981.06;;;30.76;48.63
73821;BME280;62150;43.582;1.456;2023-09-19T18:04:38;99983.69;;;30.70;49.03
73821;BME280;62150;43.582;1.456;2023-09-19T18:07:05;99995.72;;;30.72;47.90
73821;BME280;62150;43.582;1.456;2023-09-19T18:09:33;99991.50;;;30.84;47.72
73821;BME280;62150;43.582;1.456;2023-09-19T18:12:00;99991.41;;;30.43;52.24